createdAt,value
2023-01-25T00:00:39.603Z,103308.13
2023-01-25T00:03:32.531Z,103306.98
2023-01-25T00:06:04.640Z,103310.39
2023-01-25T00:08:36.940Z,103312.38
2023-01-25T00:11:08.010Z,103311.41
2023-01-25T00:13:43.894Z,103309.67
2023-01-25T00:16:14.887Z,103308.35
2023-01-25T00:18:47.846Z,103298.61
2023-01-25T00:21:23.694Z,103301.08
2023-01-25T00:23:55.240Z,103300.30
2023-01-25T00:26:27.322Z,103301.61
2023-01-25T00:29:00.002Z,103298.38
2023-01-25T00:31:47.029Z,103298.08
2023-01-25T00:34:44.105Z,103295.46
2023-01-25T00:37:38.117Z,103289.24
2023-01-25T00:40:13.472Z,103283.92
2023-01-25T00:42:44.920Z,103278.77
2023-01-25T00:45:17.246Z,103280.82
2023-01-25T00:47:50.850Z,103278.13
2023-01-25T00:50:22.913Z,103274.08
2023-01-25T00:52:54.620Z,103268.73
2023-01-25T00:55:27.542Z,103265.81
2023-01-25T00:58:01.169Z,103258.71
2023-01-25T01:00:32.747Z,103262.37
2023-01-25T01:03:07.548Z,103258.98
2023-01-25T01:05:39.340Z,103251.61
2023-01-25T01:08:12.808Z,103250.97
2023-01-25T01:10:44.478Z,103247.30
2023-01-25T01:13:14.959Z,103243.40
2023-01-25T01:15:46.369Z,103238.58
2023-01-25T01:18:20.537Z,103235.47
2023-01-25T01:20:52.986Z,103235.63
2023-01-25T01:23:26.020Z,103238.22
2023-01-25T01:26:00.299Z,103239.67
2023-01-25T01:28:38.718Z,103234.01
2023-01-25T01:31:13.849Z,103231.54
2023-01-25T01:33:52.238Z,103231.86
2023-01-25T01:36:25.732Z,103229.05
2023-01-25T01:39:00.955Z,103226.83
2023-01-25T01:41:34.174Z,103226.46
2023-01-25T01:44:06.561Z,103226.77
2023-01-25T01:46:39.285Z,103222.64
2023-01-25T01:49:18.342Z,103217.08
2023-01-25T01:51:53.221Z,103217.38
2023-01-25T01:54:35.902Z,103216.14
2023-01-25T01:57:14.006Z,103211.21
2023-01-25T01:59:51.963Z,103202.84
2023-01-25T02:02:26.408Z,103204.16
2023-01-25T02:05:06.020Z,103200.56
2023-01-25T02:07:40.955Z,103199.05
2023-01-25T02:10:15.215Z,103196.86
2023-01-25T02:12:50.523Z,103191.84
2023-01-25T02:15:22.218Z,103188.59
2023-01-25T02:17:56.592Z,103185.81
2023-01-25T02:20:36.807Z,103182.71
2023-01-25T02:23:19.071Z,103187.44
2023-01-25T02:25:51.997Z,103185.14
2023-01-25T02:28:28.191Z,103188.63
2023-01-25T02:31:01.228Z,103187.48
2023-01-25T02:33:38.233Z,103185.20
2023-01-25T02:36:27.421Z,103176.65
2023-01-25T02:39:08.732Z,103176.30
2023-01-25T02:41:44.100Z,103178.91
2023-01-25T02:44:18.879Z,103176.43
2023-01-25T02:46:52.906Z,103173.42
2023-01-25T02:49:26.074Z,103169.02
2023-01-25T02:51:57.932Z,103167.64
2023-01-25T02:54:30.467Z,103167.42
2023-01-25T02:57:04.631Z,103164.33
2023-01-25T02:59:43.943Z,103161.16
2023-01-25T03:02:17.887Z,103160.87
2023-01-25T03:04:50.796Z,103155.52
2023-01-25T03:07:22.918Z,103155.50
2023-01-25T03:09:56.794Z,103151.54
2023-01-25T03:12:32.489Z,103149.44
2023-01-25T03:15:10.348Z,103143.85
2023-01-25T03:17:41.997Z,103140.93
2023-01-25T03:20:19.585Z,103139.58
2023-01-25T03:22:52.358Z,103132.94
2023-01-25T03:25:24.731Z,103136.13
2023-01-25T03:28:04.037Z,103131.38
2023-01-25T03:30:39.923Z,103128.80
2023-01-25T03:33:11.912Z,103119.97
2023-01-25T03:35:42.186Z,103109.89
2023-01-25T03:38:20.771Z,103102.64
2023-01-25T03:40:53.956Z,103100.89
2023-01-25T03:43:27.962Z,103095.77
2023-01-25T03:46:01.783Z,103089.41
2023-01-25T03:48:32.685Z,103083.55
2023-01-25T03:51:06.714Z,103076.26
2023-01-25T03:53:37.864Z,103073.96
2023-01-25T03:56:19.301Z,103074.22
2023-01-25T03:59:06.656Z,103077.41
2023-01-25T04:01:37.821Z,103077.63
2023-01-25T04:04:09.947Z,103074.07
2023-01-25T04:06:42.857Z,103073.59
2023-01-25T04:09:17.922Z,103073.86
2023-01-25T04:11:53.244Z,103073.45
2023-01-25T04:14:42.534Z,103070.69
2023-01-25T04:17:15.671Z,103071.80
2023-01-25T04:20:00.560Z,103068.98
2023-01-25T04:22:38.924Z,103068.89
2023-01-25T04:25:12.458Z,103064.45
2023-01-25T04:27:51.573Z,103057.25
2023-01-25T04:30:22.275Z,103056.67
2023-01-25T04:32:56.196Z,103060.49
2023-01-25T04:35:31.139Z,103057.47
2023-01-25T04:38:06.696Z,103057.33
2023-01-25T04:40:43.060Z,103055.14
2023-01-25T04:43:18.116Z,103053.83
2023-01-25T04:45:49.939Z,103061.55
2023-01-25T04:48:26.676Z,103063.21
2023-01-25T04:51:01.310Z,103064.39
2023-01-25T04:53:33.080Z,103062.18
2023-01-25T04:56:08.389Z,103062.25
2023-01-25T04:58:48.946Z,103062.90
2023-01-25T05:01:23.757Z,103062.88
2023-01-25T05:03:56.039Z,103064.11
2023-01-25T05:06:38.335Z,103062.84
2023-01-25T05:09:12.589Z,103062.64
2023-01-25T05:11:43.830Z,103064.19
2023-01-25T05:14:23.535Z,103063.36
2023-01-25T05:16:55.734Z,103057.70
2023-01-25T05:19:28.032Z,103054.56
2023-01-25T05:22:10.981Z,103049.84
2023-01-25T05:24:49.516Z,103050.01
2023-01-25T05:27:22.685Z,103053.23
2023-01-25T05:30:00.411Z,103050.06
2023-01-25T05:32:55.407Z,103045.17
2023-01-25T05:35:28.743Z,103047.89
2023-01-25T05:38:01.086Z,103049.00
2023-01-25T05:40:33.546Z,103046.32
2023-01-25T05:43:05.013Z,103038.79
2023-01-25T05:45:37.623Z,103034.23
2023-01-25T05:48:11.841Z,103027.41
2023-01-25T05:50:43.350Z,103027.14
2023-01-25T05:53:19.540Z,103026.38
2023-01-25T05:55:51.337Z,103023.88
2023-01-25T05:58:23.780Z,103021.66
2023-01-25T06:00:54.373Z,103018.61
2023-01-25T06:03:33.481Z,103015.98
2023-01-25T06:06:06.164Z,103014.14
2023-01-25T06:08:40.225Z,103015.04
2023-01-25T06:11:13.760Z,103013.80
2023-01-25T06:13:51.946Z,103009.66
2023-01-25T06:16:27.670Z,103010.59
2023-01-25T06:19:10.630Z,103012.11
2023-01-25T06:22:00.652Z,103014.41
2023-01-25T06:24:34.610Z,103012.92
2023-01-25T06:27:07.016Z,103005.95
2023-01-25T06:29:41.258Z,103005.64
2023-01-25T06:32:12.157Z,103005.74
2023-01-25T06:34:42.436Z,103006.33
2023-01-25T06:37:17.244Z,103000.02
2023-01-25T06:39:49.611Z,103000.75
2023-01-25T06:42:20.321Z,102997.64
2023-01-25T06:44:53.760Z,103002.02
2023-01-25T06:47:26.161Z,103000.72
2023-01-25T06:50:00.929Z,103001.14
2023-01-25T06:52:37.827Z,103001.55
2023-01-25T06:55:13.402Z,102999.12
2023-01-25T06:57:44.997Z,102990.00
2023-01-25T07:00:22.664Z,102990.29
2023-01-25T07:02:55.140Z,102990.28
2023-01-25T07:05:27.595Z,102989.63
2023-01-25T07:08:01.833Z,102988.50
2023-01-25T07:10:34.551Z,102984.91
2023-01-25T07:13:09.830Z,102982.46
2023-01-25T07:15:42.380Z,102982.83
2023-01-25T07:18:16.415Z,102983.75
2023-01-25T07:20:49.572Z,102979.37
2023-01-25T07:23:22.086Z,102972.19
2023-01-25T07:25:57.747Z,102965.83
2023-01-25T07:28:31.755Z,102962.98
2023-01-25T07:31:07.414Z,102954.61
2023-01-25T07:33:39.073Z,102956.27
2023-01-25T07:36:14.455Z,102956.43
2023-01-25T07:38:46.255Z,102952.16
2023-01-25T07:41:17.942Z,102950.44
2023-01-25T07:43:51.489Z,102949.16
2023-01-25T07:46:36.015Z,102949.65
2023-01-25T07:49:06.968Z,102950.09
2023-01-25T07:51:39.621Z,102951.02
2023-01-25T07:54:12.668Z,102951.56
2023-01-25T07:56:46.014Z,102944.66
2023-01-25T07:59:17.808Z,102943.49
2023-01-25T08:01:50.275Z,102943.02
2023-01-25T08:04:23.469Z,102944.23
2023-01-25T08:06:56.518Z,102939.31
2023-01-25T08:09:26.742Z,102937.48
2023-01-25T08:11:58.018Z,102931.09
2023-01-25T08:14:29.646Z,102931.30
2023-01-25T08:17:01.849Z,102925.15
2023-01-25T08:19:34.524Z,102921.82
2023-01-25T08:22:09.926Z,102918.54
2023-01-25T08:24:41.176Z,102907.88
2023-01-25T08:27:13.085Z,102906.00
2023-01-25T08:29:44.929Z,102906.63
2023-01-25T08:32:16.377Z,102910.35
2023-01-25T08:34:47.127Z,102913.61
2023-01-25T08:37:18.715Z,102912.30
2023-01-25T08:39:50.188Z,102908.15
2023-01-25T08:42:25.860Z,102905.12
2023-01-25T08:44:58.243Z,102912.59
2023-01-25T08:47:30.086Z,102911.97
2023-01-25T08:50:04.808Z,102904.04
2023-01-25T08:52:35.024Z,102905.91
2023-01-25T08:55:14.932Z,102902.56
2023-01-25T08:57:45.883Z,102902.55
2023-01-25T09:00:19.946Z,102908.54
2023-01-25T09:02:51.421Z,102910.23
2023-01-25T09:05:23.516Z,102905.23
2023-01-25T09:07:56.148Z,102904.17
2023-01-25T09:10:30.625Z,102909.55
2023-01-25T09:13:03.038Z,102906.78
2023-01-25T09:15:35.237Z,102904.02
2023-01-25T09:18:09.929Z,102903.15
2023-01-25T09:20:42.405Z,102903.97
2023-01-25T09:23:15.934Z,102899.81
2023-01-25T09:25:48.407Z,102896.70
2023-01-25T09:28:20.080Z,102890.85
2023-01-25T09:31:18.886Z,102892.16
2023-01-25T09:34:17.434Z,102881.80
2023-01-25T09:36:53.477Z,102881.35
2023-01-25T09:39:26.824Z,102872.41
2023-01-25T09:42:22.609Z,102867.86
2023-01-25T09:45:08.982Z,102867.91
2023-01-25T09:47:51.626Z,102867.23
2023-01-25T09:51:16.024Z,102867.69
2023-01-25T09:53:52.050Z,102865.17
2023-01-25T09:56:26.548Z,102866.88
2023-01-25T09:59:01.555Z,102855.34
2023-01-25T10:01:42.127Z,102849.51
2023-01-25T10:04:19.437Z,102840.81
2023-01-25T10:07:00.958Z,102837.38
2023-01-25T10:09:42.476Z,102831.63
2023-01-25T10:12:21.293Z,102824.95
2023-01-25T10:14:55.055Z,102821.88
2023-01-25T10:17:37.629Z,102823.47
2023-01-25T10:20:21.152Z,102825.38
2023-01-25T10:23:04.805Z,102819.77
2023-01-25T10:25:46.334Z,102808.67
2023-01-25T10:28:32.631Z,102808.22
2023-01-25T10:31:07.511Z,102808.46
2023-01-25T10:33:45.119Z,102808.11
2023-01-25T10:36:22.177Z,102805.80
2023-01-25T10:39:00.132Z,102800.50
2023-01-25T10:41:38.593Z,102798.19
2023-01-25T10:44:23.307Z,102795.27
2023-01-25T10:47:26.223Z,102793.59
2023-01-25T10:49:59.319Z,102790.87
2023-01-25T10:52:34.898Z,102782.36
2023-01-25T10:55:17.385Z,102773.66
2023-01-25T10:57:51.437Z,102775.04
2023-01-25T11:00:32.471Z,102773.06
2023-01-25T11:03:07.873Z,102772.77
2023-01-25T11:05:44.679Z,102766.29
2023-01-25T11:08:25.164Z,102756.05
2023-01-25T11:11:01.274Z,102744.13
2023-01-25T11:13:40.757Z,102745.39
2023-01-25T11:16:36.836Z,102736.41
2023-01-25T11:19:28.731Z,102728.30
2023-01-25T11:22:05.005Z,102727.98
2023-01-25T11:24:38.094Z,102722.91
2023-01-25T11:27:23.074Z,102721.38
2023-01-25T11:30:14.375Z,102714.13
2023-01-25T11:32:45.351Z,102711.85
2023-01-25T11:35:21.126Z,102704.71
2023-01-25T11:38:06.887Z,102701.48
2023-01-25T11:40:47.696Z,102693.05
2023-01-25T11:43:40.187Z,102687.90
2023-01-25T11:46:31.671Z,102687.23
2023-01-25T11:49:29.101Z,102685.80
2023-01-25T11:52:10.499Z,102680.56
2023-01-25T11:55:04.081Z,102688.80
2023-01-25T11:58:02.213Z,102685.42
2023-01-25T12:00:48.947Z,102677.88
2023-01-25T12:04:08.846Z,102676.75
2023-01-25T12:06:57.863Z,102675.14
2023-01-25T12:09:53.182Z,102676.05
2023-01-25T12:12:40.976Z,102671.81
2023-01-25T12:15:33.633Z,102664.41
2023-01-25T12:18:29.473Z,102657.84
2023-01-25T12:21:13.355Z,102650.13
2023-01-25T12:24:12.371Z,102645.84
2023-01-25T12:26:56.078Z,102644.02
2023-01-25T12:29:32.525Z,102644.97
2023-01-25T12:32:09.733Z,102639.46
2023-01-25T12:34:46.393Z,102628.64
2023-01-25T12:37:23.335Z,102621.77
2023-01-25T12:40:01.342Z,102618.67
2023-01-25T12:42:41.092Z,102611.61
2023-01-25T12:45:20.847Z,102609.27
2023-01-25T12:47:56.603Z,102603.31
2023-01-25T12:50:37.607Z,102598.02
2023-01-25T12:53:22.478Z,102591.04
2023-01-25T12:55:58.255Z,102591.38
2023-01-25T12:58:41.981Z,102590.87
2023-01-25T13:01:23.805Z,102588.46
2023-01-25T13:04:13.361Z,102581.26
2023-01-25T13:06:51.270Z,102579.28
2023-01-25T13:09:30.371Z,102576.98
2023-01-25T13:12:06.448Z,102577.23
2023-01-25T13:14:41.688Z,102569.77
2023-01-25T13:17:24.243Z,102574.64
2023-01-25T13:19:55.807Z,102572.93
2023-01-25T13:22:58.326Z,102569.16
2023-01-25T13:25:29.657Z,102562.52
2023-01-25T13:28:35.296Z,102552.72
2023-01-25T13:31:07.229Z,102542.16
2023-01-25T13:33:39.221Z,102534.89
2023-01-25T13:36:45.601Z,102527.44
2023-01-25T13:39:48.635Z,102519.96
2023-01-25T13:42:34.306Z,102512.36
2023-01-25T13:45:18.904Z,102507.00
2023-01-25T13:48:04.182Z,102500.09
2023-01-25T13:50:40.946Z,102497.30
2023-01-25T13:53:22.459Z,102500.80
2023-01-25T13:55:58.945Z,102497.96
2023-01-25T13:58:33.189Z,102497.30
2023-01-25T14:01:16.671Z,102495.10
2023-01-25T14:03:53.381Z,102486.66
2023-01-25T14:06:35.213Z,102489.05
2023-01-25T14:09:16.899Z,102490.80
2023-01-25T14:11:58.842Z,102486.05
2023-01-25T14:14:33.836Z,102477.10
2023-01-25T14:17:37.559Z,102472.95
2023-01-25T14:20:23.964Z,102471.93
2023-01-25T14:22:57.082Z,102470.04
2023-01-25T14:25:32.633Z,102467.86
2023-01-25T14:28:08.373Z,102463.55
2023-01-25T14:30:38.951Z,102462.06
2023-01-25T14:33:24.191Z,102461.37
2023-01-25T14:36:11.981Z,102458.31
2023-01-25T14:38:47.983Z,102451.34
2023-01-25T14:41:23.205Z,102453.14
2023-01-25T14:43:57.203Z,102446.52
2023-01-25T14:46:33.662Z,102441.20
2023-01-25T14:49:26.277Z,102438.95
2023-01-25T14:52:02.576Z,102436.48
2023-01-25T14:54:39.451Z,102431.46
2023-01-25T14:57:33.193Z,102422.13
2023-01-25T15:00:20.905Z,102416.71
2023-01-25T15:02:57.892Z,102417.42
2023-01-25T15:05:32.819Z,102422.17
2023-01-25T15:08:26.972Z,102423.45
2023-01-25T15:11:20.574Z,102418.27
2023-01-25T15:14:05.313Z,102409.07
2023-01-25T15:16:38.895Z,102409.23
2023-01-25T15:19:24.980Z,102409.98
2023-01-25T15:21:58.029Z,102409.67
2023-01-25T15:24:29.083Z,102403.94
2023-01-25T15:27:04.015Z,102402.67
2023-01-25T15:29:39.052Z,102395.43
2023-01-25T15:32:20.225Z,102395.06
2023-01-25T15:34:55.618Z,102393.77
2023-01-25T15:37:28.586Z,102392.36
2023-01-25T15:40:00.155Z,102391.88
2023-01-25T15:42:32.524Z,102384.71
2023-01-25T15:45:06.899Z,102382.18
2023-01-25T15:47:39.624Z,102384.23
2023-01-25T15:50:19.593Z,102387.76
2023-01-25T15:52:52.076Z,102384.11
2023-01-25T15:55:25.135Z,102380.21
2023-01-25T15:58:04.551Z,102371.70
2023-01-25T16:00:36.061Z,102367.16
2023-01-25T16:03:09.280Z,102364.73
2023-01-25T16:05:41.272Z,102366.84
2023-01-25T16:08:24.509Z,102362.44
2023-01-25T16:10:55.857Z,102352.73
2023-01-25T16:13:26.968Z,102355.92
2023-01-25T16:15:58.136Z,102347.66
2023-01-25T16:18:31.014Z,102343.85
2023-01-25T16:21:01.441Z,102345.52
2023-01-25T16:23:33.398Z,102345.63
2023-01-25T16:26:12.702Z,102344.85
2023-01-25T16:28:45.410Z,102342.52
2023-01-25T16:31:31.881Z,102341.33
2023-01-25T16:34:07.324Z,102346.65
2023-01-25T16:36:39.715Z,102343.66
2023-01-25T16:39:15.483Z,102344.23
2023-01-25T16:41:48.864Z,102340.95
2023-01-25T16:44:21.389Z,102336.14
2023-01-25T16:46:53.557Z,102335.23
2023-01-25T16:49:27.583Z,102335.55
2023-01-25T16:51:59.195Z,102334.98
2023-01-25T16:54:33.596Z,102332.81
2023-01-25T16:57:20.146Z,102338.19
2023-01-25T16:59:56.711Z,102335.87
2023-01-25T17:02:27.105Z,102333.84
2023-01-25T17:04:59.422Z,102330.79
2023-01-25T17:07:31.546Z,102323.24
2023-01-25T17:10:04.768Z,102320.99
2023-01-25T17:12:37.195Z,102321.96
2023-01-25T17:15:11.586Z,102322.76
2023-01-25T17:17:42.419Z,102319.39
2023-01-25T17:20:22.601Z,102321.14
2023-01-25T17:22:55.425Z,102319.09
2023-01-25T17:25:32.138Z,102314.80
2023-01-25T17:28:04.325Z,102310.70
2023-01-25T17:30:42.119Z,102311.67
2023-01-25T17:33:16.930Z,102306.62
2023-01-25T17:35:49.317Z,102301.43
2023-01-25T17:38:22.526Z,102299.27
2023-01-25T17:40:56.361Z,102295.73
2023-01-25T17:43:28.863Z,102296.73
2023-01-25T17:45:59.850Z,102292.63
2023-01-25T17:48:31.539Z,102292.67
2023-01-25T17:51:06.740Z,102286.91
2023-01-25T17:53:39.924Z,102284.78
2023-01-25T17:56:15.576Z,102281.98
2023-01-25T17:58:48.485Z,102278.73
2023-01-25T18:01:22.396Z,102275.14
2023-01-25T18:03:56.740Z,102274.50
2023-01-25T18:06:32.390Z,102272.52
2023-01-25T18:09:05.422Z,102270.46
2023-01-25T18:11:41.612Z,102266.75
2023-01-25T18:14:16.178Z,102263.96
2023-01-25T18:16:47.704Z,102267.38
2023-01-25T18:19:24.060Z,102267.38
2023-01-25T18:21:54.318Z,102262.02
2023-01-25T18:24:30.939Z,102253.02
2023-01-25T18:27:07.095Z,102249.12
2023-01-25T18:29:50.321Z,102246.38
2023-01-25T18:32:25.601Z,102242.41
2023-01-25T18:34:58.031Z,102236.25
2023-01-25T18:37:35.288Z,102232.42
2023-01-25T18:40:13.458Z,102228.88
2023-01-25T18:42:47.442Z,102224.11
2023-01-25T18:45:21.267Z,102222.27
2023-01-25T18:47:51.066Z,102219.14
2023-01-25T18:50:23.549Z,102223.27
2023-01-25T18:52:55.228Z,102217.73
2023-01-25T18:55:27.783Z,102209.73
2023-01-25T18:58:03.746Z,102201.92
2023-01-25T19:00:39.930Z,102198.55
2023-01-25T19:03:12.006Z,102193.32
2023-01-25T19:05:44.858Z,102192.48
2023-01-25T19:08:20.302Z,102185.00
2023-01-25T19:10:58.109Z,102178.42
2023-01-25T19:13:33.362Z,102177.73
2023-01-25T19:16:06.855Z,102182.65
2023-01-25T19:18:44.269Z,102180.02
2023-01-25T19:21:18.288Z,102181.89
2023-01-25T19:23:52.802Z,102179.83
2023-01-25T19:26:26.387Z,102176.67
2023-01-25T19:28:59.161Z,102171.17
2023-01-25T19:31:31.930Z,102161.81
2023-01-25T19:34:06.497Z,102159.20
2023-01-25T19:36:46.672Z,102160.56
2023-01-25T19:39:22.648Z,102161.57
2023-01-25T19:41:56.997Z,102164.42
2023-01-25T19:44:29.410Z,102165.09
2023-01-25T19:47:01.868Z,102167.33
2023-01-25T19:49:32.317Z,102161.23
2023-01-25T19:52:03.814Z,102157.27
2023-01-25T19:54:36.808Z,102151.17
2023-01-25T19:57:08.578Z,102142.67
2023-01-25T19:59:42.419Z,102141.41
2023-01-25T20:02:15.802Z,102140.15
2023-01-25T20:04:48.012Z,102135.92
2023-01-25T20:07:21.679Z,102135.65
2023-01-25T20:09:54.321Z,102128.90
2023-01-25T20:12:26.712Z,102129.23
2023-01-25T20:14:58.725Z,102135.70
2023-01-25T20:17:34.499Z,102134.48
2023-01-25T20:20:10.199Z,102127.27
2023-01-25T20:22:43.673Z,102124.34
2023-01-25T20:25:18.676Z,102118.49
2023-01-25T20:27:49.746Z,102116.16
2023-01-25T20:30:21.350Z,102113.63
2023-01-25T20:32:53.718Z,102110.48
2023-01-25T20:35:24.735Z,102105.31
2023-01-25T20:37:59.319Z,102098.55
2023-01-25T20:40:30.101Z,102098.41
2023-01-25T20:43:00.172Z,102094.05
2023-01-25T20:45:30.022Z,102092.09
2023-01-25T20:48:04.296Z,102090.41
2023-01-25T20:50:39.329Z,102091.66
2023-01-25T20:53:12.311Z,102088.34
2023-01-25T20:55:44.450Z,102085.63
2023-01-25T20:58:17.762Z,102084.77
2023-01-25T21:00:50.423Z,102084.98
2023-01-25T21:03:24.586Z,102083.95
2023-01-25T21:05:58.711Z,102081.60
2023-01-25T21:08:33.060Z,102075.77
2023-01-25T21:11:07.020Z,102077.41
2023-01-25T21:13:40.729Z,102077.16
2023-01-25T21:16:18.157Z,102075.90
2023-01-25T21:18:51.053Z,102074.70
2023-01-25T21:21:27.829Z,102074.56
2023-01-25T21:24:07.819Z,102069.91
2023-01-25T21:26:38.881Z,102072.55
2023-01-25T21:29:11.019Z,102068.69
2023-01-25T21:31:48.654Z,102069.95
2023-01-25T21:34:22.985Z,102067.34
2023-01-25T21:36:55.796Z,102065.38
2023-01-25T21:39:29.936Z,102058.23
2023-01-25T21:42:02.433Z,102048.44
2023-01-25T21:44:51.523Z,102043.98
2023-01-25T21:47:30.451Z,102040.98
2023-01-25T21:50:31.116Z,102035.25
2023-01-25T21:53:01.841Z,102036.44
2023-01-25T21:55:33.773Z,102039.39
2023-01-25T21:58:07.820Z,102041.55
2023-01-25T22:00:39.517Z,102041.86
2023-01-25T22:03:14.267Z,102041.50
2023-01-25T22:05:54.048Z,102045.28
2023-01-25T22:08:25.359Z,102039.70
2023-01-25T22:11:03.739Z,102042.01
2023-01-25T22:13:37.609Z,102044.13
2023-01-25T22:16:12.343Z,102043.42
2023-01-25T22:18:45.738Z,102041.89
2023-01-25T22:21:18.640Z,102035.88
2023-01-25T22:23:50.386Z,102031.77
2023-01-25T22:26:24.307Z,102032.36
2023-01-25T22:28:58.142Z,102032.66
2023-01-25T22:31:33.843Z,102032.59
2023-01-25T22:34:06.347Z,102033.97
2023-01-25T22:36:38.039Z,102032.70
2023-01-25T22:39:13.441Z,102031.92
2023-01-25T22:41:46.248Z,102033.14
2023-01-25T22:44:20.514Z,102029.58
2023-01-25T22:46:53.422Z,102029.49
2023-01-25T22:49:25.748Z,102019.42
2023-01-25T22:51:59.126Z,102017.27
2023-01-25T22:54:31.052Z,102014.24
2023-01-25T22:57:04.098Z,102008.59
2023-01-25T22:59:38.042Z,102008.41
2023-01-25T23:02:09.310Z,102008.02
2023-01-25T23:04:41.653Z,102007.34
2023-01-25T23:07:18.542Z,102004.12
2023-01-25T23:09:51.285Z,102000.08
2023-01-25T23:12:24.694Z,101989.44
2023-01-25T23:14:58.526Z,101988.02
2023-01-25T23:17:49.116Z,101990.28
2023-01-25T23:20:20.353Z,101991.90
2023-01-25T23:22:52.903Z,101987.83
2023-01-25T23:25:28.830Z,101979.56
2023-01-25T23:27:59.591Z,101982.06
2023-01-25T23:30:29.841Z,101975.95
2023-01-25T23:33:01.679Z,101974.61
2023-01-25T23:35:34.720Z,101974.70
2023-01-25T23:38:15.469Z,101970.98
2023-01-25T23:40:46.567Z,101972.52
2023-01-25T23:43:18.209Z,101966.77
2023-01-25T23:45:49.375Z,101958.43
2023-01-25T23:48:22.447Z,101953.34
2023-01-25T23:50:58.245Z,101945.02
2023-01-25T23:53:34.192Z,101940.23
2023-01-25T23:56:08.647Z,101935.35
2023-01-25T23:58:40.457Z,101932.11
